createdAt,value
2022-12-25T00:01:12.310Z,3.35
2022-12-25T00:03:40.074Z,3.30
2022-12-25T00:06:07.570Z,3.26
2022-12-25T00:08:35.219Z,3.28
2022-12-25T00:11:05.261Z,3.23
2022-12-25T00:13:32.775Z,3.22
2022-12-25T00:15:59.837Z,3.21
2022-12-25T00:18:26.837Z,3.22
2022-12-25T00:20:58.959Z,3.19
2022-12-25T00:23:27.156Z,3.20
2022-12-25T00:25:54.567Z,3.21
2022-12-25T00:28:23.365Z,3.17
2022-12-25T00:30:50.874Z,3.15
2022-12-25T00:33:18.718Z,3.15
2022-12-25T00:35:45.771Z,3.17
2022-12-25T00:38:12.746Z,3.11
2022-12-25T00:40:44.310Z,3.15
2022-12-25T00:43:11.443Z,3.10
2022-12-25T00:45:38.524Z,3.07
2022-12-25T00:48:06.056Z,3.06
2022-12-25T00:50:33.151Z,3.03
2022-12-25T00:53:00.205Z,2.97
2022-12-25T00:55:27.284Z,2.97
2022-12-25T00:57:54.327Z,2.94
2022-12-25T01:00:21.409Z,2.91
2022-12-25T01:02:48.678Z,2.95
2022-12-25T01:05:15.980Z,2.93
2022-12-25T01:07:43.194Z,2.97
2022-12-25T01:10:23.400Z,2.96
2022-12-25T01:12:52.052Z,2.89
2022-12-25T01:15:19.673Z,2.82
2022-12-25T01:17:46.789Z,2.81
2022-12-25T01:20:16.163Z,2.75
2022-12-25T01:22:45.892Z,2.78
2022-12-25T01:25:13.552Z,2.71
2022-12-25T01:27:42.004Z,2.60
2022-12-25T01:30:09.716Z,2.47
2022-12-25T01:32:36.993Z,2.50
2022-12-25T01:35:04.316Z,2.55
2022-12-25T01:37:31.348Z,2.51
2022-12-25T01:39:58.368Z,2.57
2022-12-25T01:42:25.503Z,2.63
2022-12-25T01:44:52.488Z,2.60
2022-12-25T01:47:19.703Z,2.56
2022-12-25T01:49:50.115Z,2.57
2022-12-25T01:52:25.380Z,2.56
2022-12-25T01:55:04.169Z,2.51
2022-12-25T01:57:34.314Z,2.51
2022-12-25T02:00:02.672Z,2.44
2022-12-25T02:02:32.905Z,2.44
2022-12-25T02:05:03.605Z,2.42
2022-12-25T02:07:34.910Z,2.41
2022-12-25T02:10:02.002Z,2.41
2022-12-25T02:12:33.031Z,2.34
2022-12-25T02:15:06.983Z,2.32
2022-12-25T02:17:49.389Z,2.27
2022-12-25T02:20:44.277Z,2.24
2022-12-25T02:23:55.923Z,2.14
2022-12-25T02:26:35.243Z,2.08
2022-12-25T02:29:17.375Z,2.05
2022-12-25T02:31:53.133Z,2.07
2022-12-25T02:34:36.312Z,2.08
2022-12-25T02:37:12.986Z,2.06
2022-12-25T02:39:58.883Z,2.05
2022-12-25T02:42:55.616Z,1.96
2022-12-25T02:45:52.568Z,1.93
2022-12-25T02:48:42.111Z,1.96
2022-12-25T02:51:31.358Z,2.04
2022-12-25T02:54:21.174Z,2.02
2022-12-25T02:57:09.090Z,1.98
2022-12-25T02:59:57.346Z,1.98
2022-12-25T03:02:43.966Z,1.97
2022-12-25T03:05:33.264Z,1.88
2022-12-25T03:08:05.164Z,1.83
2022-12-25T03:10:53.452Z,1.85
2022-12-25T03:13:26.906Z,1.85
2022-12-25T03:16:12.756Z,1.76
2022-12-25T03:18:40.031Z,1.78
2022-12-25T03:21:25.762Z,1.78
2022-12-25T03:24:16.742Z,1.71
2022-12-25T03:26:56.485Z,1.68
2022-12-25T03:29:51.896Z,1.64
2022-12-25T03:32:44.368Z,1.67
2022-12-25T03:35:24.511Z,1.67
2022-12-25T03:38:22.205Z,1.67
2022-12-25T03:41:13.665Z,1.68
2022-12-25T03:44:25.716Z,1.62
2022-12-25T03:47:24.724Z,1.61
2022-12-25T03:50:16.474Z,1.63
2022-12-25T03:53:04.898Z,1.61
2022-12-25T03:55:59.522Z,1.62
2022-12-25T03:58:46.598Z,1.56
2022-12-25T04:01:32.850Z,1.55
2022-12-25T04:04:18.985Z,1.57
2022-12-25T04:07:04.351Z,1.53
2022-12-25T04:09:50.049Z,1.50
2022-12-25T04:12:35.639Z,1.54
2022-12-25T04:15:32.419Z,1.51
2022-12-25T04:18:18.168Z,1.55
2022-12-25T04:21:03.598Z,1.52
2022-12-25T04:23:49.215Z,1.53
2022-12-25T04:26:34.661Z,1.47
2022-12-25T04:29:20.228Z,1.46
2022-12-25T04:32:05.777Z,1.45
2022-12-25T04:34:51.455Z,1.49
2022-12-25T04:37:18.762Z,1.44
2022-12-25T04:39:45.837Z,1.49
2022-12-25T04:42:12.933Z,1.50
2022-12-25T04:44:39.958Z,1.50
2022-12-25T04:47:11.176Z,1.53
2022-12-25T04:49:39.433Z,1.54
2022-12-25T04:52:06.489Z,1.53
2022-12-25T04:54:33.637Z,1.51
2022-12-25T04:57:00.610Z,1.52
2022-12-25T04:59:27.616Z,1.58
2022-12-25T05:01:54.737Z,1.63
2022-12-25T05:04:22.160Z,1.51
2022-12-25T05:06:49.157Z,1.51
2022-12-25T05:09:16.181Z,1.53
2022-12-25T05:11:43.175Z,1.47
2022-12-25T05:14:10.198Z,1.48
2022-12-25T05:16:37.306Z,1.49
2022-12-25T05:19:04.371Z,1.35
2022-12-25T05:21:31.406Z,1.29
2022-12-25T05:23:58.507Z,1.30
2022-12-25T05:26:26.915Z,1.26
2022-12-25T05:28:55.088Z,1.28
2022-12-25T05:31:22.310Z,1.36
2022-12-25T05:33:51.564Z,1.37
2022-12-25T05:36:19.226Z,1.35
2022-12-25T05:38:46.242Z,1.29
2022-12-25T05:41:13.382Z,1.26
2022-12-25T05:43:40.453Z,1.22
2022-12-25T05:46:09.614Z,1.22
2022-12-25T05:48:38.284Z,1.26
2022-12-25T05:51:10.976Z,1.28
2022-12-25T05:53:38.870Z,1.25
2022-12-25T05:56:07.616Z,1.30
2022-12-25T05:58:36.564Z,1.35
2022-12-25T06:01:03.972Z,1.40
2022-12-25T06:03:31.198Z,1.34
2022-12-25T06:05:58.293Z,1.35
2022-12-25T06:08:25.304Z,1.37
2022-12-25T06:10:52.362Z,1.32
2022-12-25T06:13:19.392Z,1.31
2022-12-25T06:15:46.374Z,1.30
2022-12-25T06:18:13.361Z,1.25
2022-12-25T06:20:41.419Z,1.27
2022-12-25T06:23:08.556Z,1.25
2022-12-25T06:25:39.425Z,1.28
2022-12-25T06:28:07.160Z,1.30
2022-12-25T06:30:34.433Z,1.33
2022-12-25T06:33:01.441Z,1.35
2022-12-25T06:35:28.527Z,1.34
2022-12-25T06:37:56.752Z,1.33
2022-12-25T06:40:23.754Z,1.31
2022-12-25T06:42:52.245Z,1.40
2022-12-25T06:45:19.245Z,1.33
2022-12-25T06:47:46.264Z,1.37
2022-12-25T06:50:13.377Z,1.38
2022-12-25T06:52:40.363Z,1.40
2022-12-25T06:55:07.788Z,1.46
2022-12-25T06:57:34.784Z,1.40
2022-12-25T07:00:01.890Z,1.43
2022-12-25T07:02:33.081Z,1.47
2022-12-25T07:05:01.460Z,1.47
2022-12-25T07:07:30.073Z,1.48
2022-12-25T07:09:57.145Z,1.44
2022-12-25T07:12:24.582Z,1.51
2022-12-25T07:14:54.639Z,1.53
2022-12-25T07:17:23.082Z,1.58
2022-12-25T07:19:50.390Z,1.59
2022-12-25T07:22:17.740Z,1.56
2022-12-25T07:24:44.872Z,1.56
2022-12-25T07:27:11.978Z,1.53
2022-12-25T07:29:39.008Z,1.54
2022-12-25T07:32:06.573Z,1.53
2022-12-25T07:34:33.819Z,1.46
2022-12-25T07:37:00.902Z,1.44
2022-12-25T07:39:28.626Z,1.50
2022-12-25T07:41:57.917Z,1.52
2022-12-25T07:44:27.767Z,1.52
2022-12-25T07:46:54.759Z,1.41
2022-12-25T07:49:24.797Z,1.45
2022-12-25T07:51:51.858Z,1.39
2022-12-25T07:54:18.907Z,1.42
2022-12-25T07:56:46.003Z,1.36
2022-12-25T07:59:13.030Z,1.37
2022-12-25T08:01:40.296Z,1.37
2022-12-25T08:04:08.430Z,1.29
2022-12-25T08:06:36.049Z,1.28
2022-12-25T08:09:12.859Z,1.30
2022-12-25T08:11:40.594Z,1.40
2022-12-25T08:14:09.205Z,1.35
2022-12-25T08:16:39.963Z,1.35
2022-12-25T08:28:45.563Z,1.22
2022-12-25T08:31:27.098Z,1.41
2022-12-25T08:33:58.055Z,1.46
2022-12-25T08:36:25.549Z,1.46
2022-12-25T08:39:00.432Z,1.49
2022-12-25T08:41:30.587Z,1.46
2022-12-25T08:43:58.960Z,1.47
2022-12-25T08:46:26.091Z,1.49
2022-12-25T08:49:49.004Z,1.52
2022-12-25T08:52:10.342Z,1.49
2022-12-25T08:54:37.454Z,1.50
2022-12-25T08:57:04.614Z,1.49
2022-12-25T08:59:31.667Z,1.48
2022-12-25T09:01:59.067Z,1.46
2022-12-25T09:04:26.226Z,1.36
2022-12-25T09:06:56.092Z,1.27
2022-12-25T09:09:27.748Z,1.35
2022-12-25T09:11:55.186Z,1.40
2022-12-25T09:14:22.427Z,1.29
2022-12-25T09:16:52.580Z,1.35
2022-12-25T09:19:19.674Z,1.40
2022-12-25T09:21:46.828Z,1.31
2022-12-25T09:24:13.838Z,1.31
2022-12-25T09:26:40.932Z,1.28
2022-12-25T09:29:07.959Z,1.29
2022-12-25T09:31:35.289Z,1.28
2022-12-25T09:34:03.057Z,1.33
2022-12-25T09:36:30.386Z,1.35
2022-12-25T09:38:57.527Z,1.34
2022-12-25T09:41:28.387Z,1.26
2022-12-25T09:44:06.045Z,1.25
2022-12-25T09:46:41.336Z,1.14
2022-12-25T09:49:19.982Z,1.21
2022-12-25T09:51:53.724Z,1.22
2022-12-25T09:54:46.813Z,1.27
2022-12-25T09:57:14.982Z,1.22
2022-12-25T09:59:47.589Z,1.23
2022-12-25T10:02:37.045Z,1.27
2022-12-25T10:05:41.231Z,1.21
2022-12-25T10:08:11.086Z,1.25
2022-12-25T10:11:11.924Z,1.21
2022-12-25T10:14:16.116Z,1.23
2022-12-25T10:17:04.428Z,1.25
2022-12-25T10:19:41.727Z,1.24
2022-12-25T10:22:33.892Z,1.23
2022-12-25T10:33:02.301Z,1.31
2022-12-25T11:04:25.566Z,1.32
2022-12-25T11:07:31.655Z,1.36
2022-12-25T11:10:06.456Z,1.28
2022-12-25T11:12:38.463Z,1.27
2022-12-25T11:15:27.812Z,1.33
2022-12-25T11:17:54.934Z,1.35
2022-12-25T11:20:28.406Z,1.34
2022-12-25T11:22:55.803Z,1.36
2022-12-25T11:25:26.937Z,1.40
2022-12-25T11:28:05.520Z,1.40
2022-12-25T11:30:33.983Z,1.40
2022-12-25T11:33:11.078Z,1.41
2022-12-25T11:35:47.881Z,1.36
2022-12-25T11:38:14.897Z,1.45
2022-12-25T11:40:52.577Z,1.44
2022-12-25T11:43:25.448Z,1.46
2022-12-25T11:46:06.802Z,1.48
2022-12-25T11:49:06.247Z,1.50
2022-12-25T11:51:38.875Z,1.50
2022-12-25T11:54:24.445Z,1.52
2022-12-25T11:56:52.277Z,1.51
2022-12-25T11:59:32.334Z,1.45
2022-12-25T12:02:04.325Z,1.44
2022-12-25T12:04:43.144Z,1.48
2022-12-25T12:07:27.023Z,1.40
2022-12-25T12:10:09.182Z,1.28
2022-12-25T12:13:00.703Z,1.26
2022-12-25T12:15:48.751Z,1.23
2022-12-25T12:18:27.816Z,1.19
2022-12-25T12:21:19.334Z,1.19
2022-12-25T12:24:16.020Z,1.17
2022-12-25T12:27:02.423Z,1.11
2022-12-25T12:29:55.692Z,1.05
2022-12-25T12:32:47.882Z,1.02
2022-12-25T12:35:22.520Z,0.97
2022-12-25T12:37:53.890Z,0.93
2022-12-25T12:40:37.462Z,0.92
2022-12-25T12:43:07.362Z,0.94
2022-12-25T12:45:38.474Z,0.93
2022-12-25T12:48:16.815Z,0.91
2022-12-25T12:50:43.947Z,1.03
2022-12-25T12:53:23.573Z,0.98
2022-12-25T12:55:52.640Z,0.90
2022-12-25T12:58:34.504Z,0.90
2022-12-25T13:01:13.818Z,0.81
2022-12-25T13:03:47.122Z,0.80
2022-12-25T13:06:38.303Z,0.78
2022-12-25T13:09:23.897Z,0.85
2022-12-25T13:11:54.046Z,0.87
2022-12-25T13:14:38.160Z,0.75
2022-12-25T13:17:09.028Z,0.78
2022-12-25T13:19:38.766Z,0.78
2022-12-25T13:22:07.233Z,0.78
2022-12-25T13:24:36.890Z,0.84
2022-12-25T13:27:23.593Z,0.84
2022-12-25T13:29:51.005Z,0.82
2022-12-25T13:32:28.799Z,0.87
2022-12-25T13:34:56.394Z,0.82
2022-12-25T13:37:28.445Z,0.77
2022-12-25T13:40:01.635Z,0.80
2022-12-25T13:42:33.822Z,0.83
2022-12-25T13:45:20.120Z,0.75
2022-12-25T13:47:55.225Z,0.65
2022-12-25T13:50:30.000Z,0.62
2022-12-25T13:53:09.641Z,0.57
2022-12-25T13:55:37.078Z,0.45
2022-12-25T13:58:06.718Z,0.40
2022-12-25T14:00:45.511Z,0.38
2022-12-25T14:03:22.477Z,0.44
2022-12-25T14:06:01.840Z,0.40
2022-12-25T14:08:41.340Z,0.48
2022-12-25T14:26:43.334Z,0.42
2022-12-25T14:44:08.692Z,0.50
2022-12-25T14:46:39.275Z,0.45
2022-12-25T14:49:21.113Z,0.64
2022-12-25T14:51:48.213Z,0.68
2022-12-25T14:54:22.644Z,0.65
2022-12-25T14:56:56.306Z,0.72
2022-12-25T14:59:27.278Z,0.69
2022-12-25T15:02:03.556Z,0.71
2022-12-25T15:04:31.431Z,0.69
2022-12-25T15:07:07.479Z,0.65
2022-12-25T15:09:38.053Z,0.53
2022-12-25T15:12:09.452Z,0.44
2022-12-25T15:14:38.573Z,0.40
2022-12-25T15:17:05.925Z,0.36
2022-12-25T15:19:38.664Z,0.36
2022-12-25T15:22:06.666Z,0.28
2022-12-25T15:24:33.660Z,0.25
2022-12-25T15:27:01.034Z,0.20
2022-12-25T15:32:24.258Z,0.18
2022-12-25T15:34:51.414Z,0.09
2022-12-25T15:37:19.070Z,0.07
2022-12-25T15:39:46.739Z,0.07
2022-12-25T15:42:16.902Z,0.02
2022-12-25T15:44:44.786Z,-0.04
2022-12-25T15:47:13.267Z,0.02
2022-12-25T15:49:40.342Z,-0.09
2022-12-25T15:52:10.090Z,-0.07
2022-12-25T15:54:37.116Z,-0.05
2022-12-25T15:57:06.751Z,0.02
2022-12-25T15:59:34.333Z,-0.03
2022-12-25T16:02:02.269Z,-0.05
2022-12-25T16:04:31.425Z,-0.01
2022-12-25T16:06:59.698Z,0.03
2022-12-25T16:09:27.710Z,0.10
2022-12-25T16:11:54.900Z,0.12
2022-12-25T16:14:22.029Z,0.15
2022-12-25T16:16:49.053Z,0.20
2022-12-25T16:19:19.155Z,0.29
2022-12-25T16:21:47.204Z,0.29
2022-12-25T16:24:14.686Z,0.36
2022-12-25T16:26:42.181Z,0.34
2022-12-25T16:29:10.345Z,0.30
2022-12-25T16:31:37.937Z,0.28
2022-12-25T16:34:06.697Z,0.36
2022-12-25T16:36:34.689Z,0.38
2022-12-25T16:39:02.619Z,0.42
2022-12-25T16:41:29.676Z,0.44
2022-12-25T16:43:56.695Z,0.45
2022-12-25T16:46:23.945Z,0.48
2022-12-25T16:48:51.043Z,0.51
2022-12-25T16:51:20.489Z,0.54
2022-12-25T16:53:48.074Z,0.53
2022-12-25T16:56:39.728Z,0.59
2022-12-25T16:59:06.750Z,0.65
2022-12-25T17:01:33.920Z,0.69
2022-12-25T17:04:03.986Z,0.71
2022-12-25T17:06:31.135Z,0.66
2022-12-25T17:09:00.426Z,0.71
2022-12-25T17:19:31.848Z,0.70
2022-12-25T17:22:00.001Z,0.72
2022-12-25T17:29:21.742Z,0.63
2022-12-25T17:31:49.673Z,0.65
2022-12-25T17:34:16.806Z,0.62
2022-12-25T17:36:43.835Z,0.70
2022-12-25T17:39:11.744Z,0.73
2022-12-25T17:41:38.818Z,0.68
2022-12-25T17:44:05.943Z,0.69
2022-12-25T17:46:33.102Z,0.64
2022-12-25T17:49:01.548Z,0.73
2022-12-25T17:51:30.796Z,0.75
2022-12-25T17:54:03.418Z,0.74
2022-12-25T17:56:56.716Z,0.74
2022-12-25T17:59:28.607Z,0.73
2022-12-25T18:01:56.068Z,0.76
2022-12-25T18:04:33.420Z,0.80
2022-12-25T18:07:00.422Z,0.80
2022-12-25T18:09:27.442Z,0.73
2022-12-25T18:11:54.717Z,0.71
2022-12-25T18:14:22.040Z,0.69
2022-12-25T18:16:49.246Z,0.72
2022-12-25T18:19:18.606Z,0.67
2022-12-25T18:21:45.743Z,0.74
2022-12-25T18:24:12.744Z,0.70
2022-12-25T18:26:39.752Z,0.69
2022-12-25T18:29:07.207Z,0.74
2022-12-25T18:31:34.615Z,0.71
2022-12-25T18:34:03.603Z,0.72
2022-12-25T18:36:31.407Z,0.77
2022-12-25T18:38:59.491Z,0.74
2022-12-25T18:41:28.563Z,0.71
2022-12-25T18:43:56.158Z,0.65
2022-12-25T18:46:27.820Z,0.66
2022-12-25T18:48:57.500Z,0.67
2022-12-25T18:51:26.742Z,0.67
2022-12-25T18:53:58.247Z,0.64
2022-12-25T18:56:25.182Z,0.63
2022-12-25T18:58:52.439Z,0.58
2022-12-25T19:01:24.412Z,0.62
2022-12-25T19:03:56.044Z,0.64
2022-12-25T19:06:32.871Z,0.65
2022-12-25T19:09:00.218Z,0.64
2022-12-25T19:11:27.596Z,0.64
2022-12-25T19:13:54.764Z,0.69
2022-12-25T19:16:22.041Z,0.68
2022-12-25T19:18:49.422Z,0.72
2022-12-25T19:21:16.603Z,0.74
2022-12-25T19:23:43.840Z,0.76
2022-12-25T19:26:11.730Z,0.73
2022-12-25T19:28:40.229Z,0.75
2022-12-25T19:31:10.125Z,0.72
2022-12-25T19:33:40.621Z,0.67
2022-12-25T19:36:12.731Z,0.69
2022-12-25T19:38:40.784Z,0.70
2022-12-25T19:41:15.899Z,0.70
2022-12-25T19:43:45.806Z,0.68
2022-12-25T19:46:19.976Z,0.68
2022-12-25T19:48:47.798Z,0.63
2022-12-25T19:51:27.376Z,0.60
2022-12-25T19:58:35.210Z,0.34
2022-12-25T20:01:06.377Z,0.54
2022-12-25T20:03:40.215Z,0.60
2022-12-25T20:06:20.009Z,0.61
2022-12-25T20:08:48.657Z,0.61
2022-12-25T20:11:16.761Z,0.60
2022-12-25T20:13:44.052Z,0.71
2022-12-25T20:16:11.342Z,0.67
2022-12-25T20:18:39.342Z,0.62
2022-12-25T20:21:10.756Z,0.61
2022-12-25T20:23:37.899Z,0.57
2022-12-25T20:26:05.737Z,0.67
2022-12-25T20:28:36.145Z,0.67
2022-12-25T20:31:17.944Z,0.67
2022-12-25T20:33:48.877Z,0.69
2022-12-25T20:36:16.485Z,0.68
2022-12-25T20:38:46.834Z,0.65
2022-12-25T20:41:32.201Z,0.71
2022-12-25T20:43:59.910Z,0.72
2022-12-25T20:46:27.871Z,0.75
2022-12-25T20:48:55.128Z,0.71
2022-12-25T20:51:24.993Z,0.70
2022-12-25T20:53:52.809Z,0.70
2022-12-25T20:56:24.268Z,0.69
2022-12-25T20:58:59.776Z,0.76
2022-12-25T21:01:28.492Z,0.71
2022-12-25T21:03:56.137Z,0.68
2022-12-25T21:06:24.104Z,0.65
2022-12-25T21:08:51.179Z,0.63
2022-12-25T21:11:18.382Z,0.76
2022-12-25T21:13:46.297Z,0.69
2022-12-25T21:16:20.132Z,0.62
2022-12-25T21:18:48.849Z,0.69
2022-12-25T21:22:22.480Z,0.67
2022-12-25T21:24:52.102Z,0.68
2022-12-25T21:30:00.099Z,0.68
2022-12-25T21:33:01.281Z,0.61
2022-12-25T21:35:28.317Z,0.61
2022-12-25T21:37:55.321Z,0.56
2022-12-25T21:40:22.511Z,0.57
2022-12-25T21:42:49.541Z,0.69
2022-12-25T21:45:16.616Z,0.80
2022-12-25T21:48:02.295Z,0.78
2022-12-25T21:50:49.069Z,0.79
2022-12-25T21:53:18.152Z,0.75
2022-12-25T21:56:04.397Z,0.73
2022-12-25T21:58:31.906Z,0.72
2022-12-25T22:01:03.816Z,0.72
2022-12-25T22:03:30.973Z,0.75
2022-12-25T22:06:21.388Z,0.72
2022-12-25T22:08:49.051Z,0.75
2022-12-25T22:11:34.848Z,0.77
2022-12-25T22:14:20.657Z,0.78
2022-12-25T22:17:27.265Z,0.84
2022-12-25T22:19:55.418Z,0.82
2022-12-25T22:22:25.482Z,0.80
2022-12-25T22:24:59.489Z,0.82
2022-12-25T22:27:31.427Z,0.75
2022-12-25T22:29:58.934Z,0.86
2022-12-25T22:32:27.252Z,0.77
2022-12-25T22:34:54.814Z,0.78
2022-12-25T22:37:23.179Z,0.85
2022-12-25T22:39:50.280Z,0.82
2022-12-25T22:42:17.320Z,0.82
2022-12-25T22:44:44.551Z,0.86
2022-12-25T22:47:11.717Z,0.88
2022-12-25T22:49:39.521Z,0.96
2022-12-25T22:52:08.292Z,0.89
2022-12-25T22:54:35.376Z,0.84
2022-12-25T22:57:02.523Z,0.76
2022-12-25T22:59:30.114Z,0.78
2022-12-25T23:01:57.300Z,0.75
2022-12-25T23:04:24.701Z,0.74
2022-12-25T23:06:51.858Z,0.71
2022-12-25T23:09:24.812Z,0.65
2022-12-25T23:11:52.075Z,0.55
2022-12-25T23:14:37.531Z,0.53
2022-12-25T23:17:05.225Z,0.50
2022-12-25T23:19:50.770Z,0.59
2022-12-25T23:22:36.287Z,0.56
2022-12-25T23:25:22.047Z,0.55
2022-12-25T23:27:49.092Z,0.51
2022-12-25T23:30:16.881Z,0.52
2022-12-25T23:32:44.521Z,0.51
2022-12-25T23:35:12.895Z,0.53
2022-12-25T23:37:39.923Z,0.55
2022-12-25T23:40:07.894Z,0.56
2022-12-25T23:42:34.975Z,0.53
2022-12-25T23:45:01.953Z,0.54
2022-12-25T23:47:31.032Z,0.58
2022-12-25T23:49:58.068Z,0.54
2022-12-25T23:52:25.156Z,0.52
2022-12-25T23:54:53.016Z,0.58
2022-12-25T23:57:21.251Z,0.56
2022-12-25T23:59:48.279Z,0.57
